PWSweather.com
Personal Weather Stations
Station Observations
SEAWX98122
Seattle (greenwood), Seattle, WA 98103

Seattle (greenwood)Seattle, WA 98103

Lat: 47.6977, Lon: -122.347

Elevation: 324

Station Type: Davis Vantage Pro 2

https://www.seattleweather.org

Latest ConditionsUpdated 11:10:00 AM PDT Sunday, May 26, 2019
Currently Today's Max Today's Min Today's Average
Temperature 56.0°F13.3°C 56.0°F13.3°C 50.2°F10.1°C 52.0°F11.1°C
Dew Point 51.2°F10.7°C 51.2°F10.7°C 47.4°F8.6°C 49.0°F9.4°C
Winds 3.5 mph E5.6 kmh E 8.1 mph -13.0 kmh - - 3.6 mph 5.8 kmh
Wind Gusts 3.5 mph5.6 kmh 11.5 mph18.5 kmh - -
Humidity 84% 92% 84% 89%
Pressure 29.91 in1012.9 mb 29.92 in1013.2 mb 29.88 in1011.9 mb -
Hour Temp Dew Point Humidity Winds Wind Gusts Pressure Precip Precip Rate Daily Precip Total
11:10 AM 56.0°F13.3°C 51.2°F10.7°C 84% 3.5 mph E5.6 kmh E 3.5 mph5.6 kmh 29.91 in1012.9 mb - 0.00 in0.0 mm 0.00 in0.0 mm
11:00 AM 55.5°F13.1°C 51.1°F10.6°C 85% 3.5 mph E5.6 kmh E 3.5 mph5.6 kmh 29.91 in1012.9 mb - 0.00 in0.0 mm 0.00 in0.0 mm
10:55 AM 55.4°F13.0°C 50.9°F10.5°C 85% 2.3 mph E3.7 kmh E 5.8 mph9.3 kmh 29.91 in1012.9 mb - 0.00 in0.0 mm 0.00 in0.0 mm
10:50 AM 55.3°F12.9°C 50.9°F10.5°C 85% 4.6 mph NE7.4 kmh NE 4.6 mph7.4 kmh 29.91 in1012.9 mb - 0.00 in0.0 mm 0.00 in0.0 mm
10:45 AM 55.4°F13.0°C 51.0°F10.6°C 85% 4.6 mph ENE7.4 kmh ENE 11.5 mph18.5 kmh 29.91 in1012.9 mb - 0.00 in0.0 mm 0.00 in0.0 mm
10:40 AM 55.3°F12.9°C 50.9°F10.5°C 85% 2.3 mph NE3.7 kmh NE 4.6 mph7.4 kmh 29.91 in1012.9 mb - 0.00 in0.0 mm 0.00 in0.0 mm
10:35 AM 55.5°F13.1°C 50.7°F10.4°C 84% 5.8 mph E9.3 kmh E 9.2 mph14.8 kmh 29.91 in1012.9 mb - 0.00 in0.0 mm 0.00 in0.0 mm
10:25 AM 55.5°F13.1°C 51.1°F10.6°C 85% 4.6 mph E7.4 kmh E 6.9 mph11.1 kmh 29.91 in1012.9 mb - 0.00 in0.0 mm 0.00 in0.0 mm
10:20 AM 55.5°F13.1°C 51.1°F10.6°C 85% 3.5 mph NE5.6 kmh NE 3.5 mph5.6 kmh 29.91 in1012.9 mb - 0.00 in0.0 mm 0.00 in0.0 mm
10:15 AM 55.5°F13.1°C 51.1°F10.6°C 85% 1.2 mph ENE1.9 kmh ENE 3.5 mph5.6 kmh 29.91 in1012.9 mb - 0.00 in0.0 mm 0.00 in0.0 mm
10:10 AM 55.4°F13.0°C 51.0°F10.6°C 85% 2.3 mph E3.7 kmh E 4.6 mph7.4 kmh 29.91 in1012.9 mb - 0.00 in0.0 mm 0.00 in0.0 mm
10:00 AM 55.3°F12.9°C 50.9°F10.5°C 85% 5.8 mph E9.3 kmh E 9.2 mph14.8 kmh 29.91 in1012.9 mb - 0.00 in0.0 mm 0.00 in0.0 mm
09:55 AM 55.2°F12.9°C 51.1°F10.6°C 86% 5.8 mph E9.3 kmh E 6.9 mph11.1 kmh 29.91 in1012.9 mb - 0.00 in0.0 mm 0.00 in0.0 mm
09:50 AM 55.1°F12.8°C 51.0°F10.6°C 86% 4.6 mph NE7.4 kmh NE 4.6 mph7.4 kmh 29.91 in1012.9 mb - 0.00 in0.0 mm 0.00 in0.0 mm
09:45 AM 55.0°F12.8°C 51.2°F10.7°C 87% 3.5 mph NE5.6 kmh NE 3.5 mph5.6 kmh 29.91 in1012.9 mb - 0.00 in0.0 mm 0.00 in0.0 mm
09:40 AM 54.8°F12.7°C 51.0°F10.6°C 87% 3.5 mph E5.6 kmh E 4.6 mph7.4 kmh 29.91 in1012.9 mb - 0.00 in0.0 mm 0.00 in0.0 mm
09:35 AM 54.5°F12.5°C 50.8°F10.4°C 87% 2.3 mph E3.7 kmh E 5.8 mph9.3 kmh 29.91 in1012.9 mb - 0.00 in0.0 mm 0.00 in0.0 mm
09:30 AM 54.4°F12.4°C 50.9°F10.5°C 88% 4.6 mph E7.4 kmh E 8.1 mph13.0 kmh 29.91 in1012.9 mb - 0.00 in0.0 mm 0.00 in0.0 mm
09:25 AM 54.3°F12.4°C 50.8°F10.4°C 88% 2.3 mph E3.7 kmh E 3.5 mph5.6 kmh 29.91 in1012.9 mb - 0.00 in0.0 mm 0.00 in0.0 mm
09:20 AM 54.2°F12.3°C 50.4°F10.2°C 87% 3.5 mph E5.6 kmh E 4.6 mph7.4 kmh 29.91 in1012.9 mb - 0.00 in0.0 mm 0.00 in0.0 mm
09:15 AM 54.2°F12.3°C 50.7°F10.4°C 88% 3.5 mph ENE5.6 kmh ENE 6.9 mph11.1 kmh 29.91 in1012.9 mb - 0.00 in0.0 mm 0.00 in0.0 mm
09:10 AM 54.2°F12.3°C 50.4°F10.2°C 87% 3.5 mph E5.6 kmh E 6.9 mph11.1 kmh 29.91 in1012.9 mb - 0.00 in0.0 mm 0.00 in0.0 mm
09:00 AM 54.1°F12.3°C 50.6°F10.3°C 88% 3.5 mph E5.6 kmh E 6.9 mph11.1 kmh 29.91 in1012.9 mb - 0.00 in0.0 mm 0.00 in0.0 mm
08:55 AM 54.0°F12.2°C 50.2°F10.1°C 87% 5.8 mph ENE9.3 kmh ENE 8.1 mph13.0 kmh 29.91 in1012.9 mb - 0.00 in0.0 mm 0.00 in0.0 mm
08:50 AM 54.1°F12.3°C 50.3°F10.2°C 87% 4.6 mph NE7.4 kmh NE 8.1 mph13.0 kmh 29.91 in1012.9 mb - 0.00 in0.0 mm 0.00 in0.0 mm
08:45 AM 54.1°F12.3°C 50.6°F10.3°C 88% 2.3 mph E3.7 kmh E 3.5 mph5.6 kmh 29.91 in1012.9 mb - 0.00 in0.0 mm 0.00 in0.0 mm
08:40 AM 53.9°F12.2°C 50.4°F10.2°C 88% 3.5 mph ENE5.6 kmh ENE 3.5 mph5.6 kmh 29.91 in1012.9 mb - 0.00 in0.0 mm 0.00 in0.0 mm
08:35 AM 53.8°F12.1°C 50.0°F10.0°C 87% 6.9 mph ENE11.1 kmh ENE 9.2 mph14.8 kmh 29.91 in1012.9 mb - 0.00 in0.0 mm 0.00 in0.0 mm
08:30 AM 53.7°F12.1°C 50.2°F10.1°C 88% 5.8 mph NE9.3 kmh NE 8.1 mph13.0 kmh 29.91 in1012.9 mb - 0.00 in0.0 mm 0.00 in0.0 mm
08:25 AM 53.6°F12.0°C 50.1°F10.1°C 88% 5.8 mph ENE9.3 kmh ENE 9.2 mph14.8 kmh 29.91 in1012.9 mb - 0.00 in0.0 mm 0.00 in0.0 mm
08:20 AM 53.5°F11.9°C 49.7°F9.8°C 87% 2.3 mph N3.7 kmh N 4.6 mph7.4 kmh 29.91 in1012.9 mb - 0.00 in0.0 mm 0.00 in0.0 mm
08:15 AM 53.4°F11.9°C 49.6°F9.8°C 87% 3.5 mph NE5.6 kmh NE 3.5 mph5.6 kmh 29.91 in1012.9 mb - 0.00 in0.0 mm 0.00 in0.0 mm
08:10 AM 53.4°F11.9°C 49.6°F9.8°C 87% 4.6 mph NNE7.4 kmh NNE 5.8 mph9.3 kmh 29.90 in1012.5 mb - 0.00 in0.0 mm 0.00 in0.0 mm
08:00 AM 53.2°F11.8°C 49.8°F9.9°C 88% 2.3 mph NE3.7 kmh NE 2.3 mph3.7 kmh 29.90 in1012.5 mb - 0.00 in0.0 mm 0.00 in0.0 mm
07:55 AM 53.2°F11.8°C 49.7°F9.8°C 88% 3.5 mph NE5.6 kmh NE 5.8 mph9.3 kmh 29.90 in1012.5 mb - 0.00 in0.0 mm 0.00 in0.0 mm
07:50 AM 53.0°F11.7°C 49.8°F9.9°C 89% 5.8 mph NE9.3 kmh NE 8.1 mph13.0 kmh 29.90 in1012.5 mb - 0.00 in0.0 mm 0.00 in0.0 mm
07:45 AM 53.0°F11.7°C 49.8°F9.9°C 89% 3.5 mph NE5.6 kmh NE 5.8 mph9.3 kmh 29.90 in1012.5 mb - 0.00 in0.0 mm 0.00 in0.0 mm
07:40 AM 52.9°F11.6°C 49.7°F9.8°C 89% 4.6 mph NNE7.4 kmh NNE 5.8 mph9.3 kmh 29.90 in1012.5 mb - 0.00 in0.0 mm 0.00 in0.0 mm
07:35 AM 52.8°F11.6°C 49.6°F9.8°C 89% 3.5 mph NE5.6 kmh NE 3.5 mph5.6 kmh 29.90 in1012.5 mb - 0.00 in0.0 mm 0.00 in0.0 mm
07:30 AM 52.7°F11.5°C 49.5°F9.7°C 89% 4.6 mph ENE7.4 kmh ENE 5.8 mph9.3 kmh 29.90 in1012.5 mb - 0.00 in0.0 mm 0.00 in0.0 mm
07:25 AM 52.6°F11.4°C 49.8°F9.9°C 90% 2.3 mph ENE3.7 kmh ENE 3.5 mph5.6 kmh 29.90 in1012.5 mb - 0.00 in0.0 mm 0.00 in0.0 mm
07:20 AM 52.5°F11.4°C 49.6°F9.8°C 90% 5.8 mph ENE9.3 kmh ENE 9.2 mph14.8 kmh 29.90 in1012.5 mb - 0.00 in0.0 mm 0.00 in0.0 mm
07:15 AM 52.3°F11.3°C 49.5°F9.7°C 90% 4.6 mph ENE7.4 kmh ENE 5.8 mph9.3 kmh 29.90 in1012.5 mb - 0.00 in0.0 mm 0.00 in0.0 mm
07:10 AM 52.2°F11.2°C 49.4°F9.7°C 90% 3.5 mph ENE5.6 kmh ENE 4.6 mph7.4 kmh 29.90 in1012.5 mb - 0.00 in0.0 mm 0.00 in0.0 mm
07:00 AM 52.1°F11.2°C 49.0°F9.4°C 89% 3.5 mph NE5.6 kmh NE 3.5 mph5.6 kmh 29.90 in1012.5 mb - 0.00 in0.0 mm 0.00 in0.0 mm
06:55 AM 52.0°F11.1°C 48.9°F9.4°C 89% 3.5 mph NE5.6 kmh NE 4.6 mph7.4 kmh 29.89 in1012.2 mb - 0.00 in0.0 mm 0.00 in0.0 mm
06:50 AM 51.9°F11.1°C 49.1°F9.5°C 90% 3.5 mph ENE5.6 kmh ENE 3.5 mph5.6 kmh 29.90 in1012.5 mb - 0.00 in0.0 mm 0.00 in0.0 mm
06:45 AM 51.9°F11.1°C 49.0°F9.4°C 90% 2.3 mph NE3.7 kmh NE 4.6 mph7.4 kmh 29.90 in1012.5 mb - 0.00 in0.0 mm 0.00 in0.0 mm
06:40 AM 51.8°F11.0°C 49.0°F9.4°C 90% 2.3 mph E3.7 kmh E 4.6 mph7.4 kmh 29.89 in1012.2 mb - 0.00 in0.0 mm 0.00 in0.0 mm
06:35 AM 51.7°F10.9°C 48.9°F9.4°C 90% 3.5 mph NE5.6 kmh NE 3.5 mph5.6 kmh 29.89 in1012.2 mb - 0.00 in0.0 mm 0.00 in0.0 mm
06:30 AM 51.7°F10.9°C 48.9°F9.4°C 90% 2.3 mph E3.7 kmh E 3.5 mph5.6 kmh 29.89 in1012.2 mb - 0.00 in0.0 mm 0.00 in0.0 mm
06:25 AM 51.7°F10.9°C 48.8°F9.3°C 90% 2.3 mph ENE3.7 kmh ENE 3.5 mph5.6 kmh 29.90 in1012.5 mb - 0.00 in0.0 mm 0.00 in0.0 mm
06:20 AM 51.6°F10.9°C 48.8°F9.3°C 90% 3.5 mph ENE5.6 kmh ENE 3.5 mph5.6 kmh 29.89 in1012.2 mb - 0.00 in0.0 mm 0.00 in0.0 mm
06:15 AM 51.5°F10.8°C 48.7°F9.3°C 90% 3.5 mph ENE5.6 kmh ENE 3.5 mph5.6 kmh 29.89 in1012.2 mb - 0.00 in0.0 mm 0.00 in0.0 mm
06:10 AM 51.5°F10.8°C 48.7°F9.3°C 90% 2.3 mph NE3.7 kmh NE 3.5 mph5.6 kmh 29.89 in1012.2 mb - 0.00 in0.0 mm 0.00 in0.0 mm
06:00 AM 51.4°F10.8°C 48.6°F9.2°C 90% Calm Calm -- 29.89 in1012.2 mb - 0.00 in0.0 mm 0.00 in0.0 mm
05:55 AM 51.4°F10.8°C 48.6°F9.2°C 90% Calm Calm -- 29.89 in1012.2 mb - 0.00 in0.0 mm 0.00 in0.0 mm
05:50 AM 51.3°F10.7°C 48.5°F9.2°C 90% 1.2 mph NE1.9 kmh NE 2.3 mph3.7 kmh 29.89 in1012.2 mb - 0.00 in0.0 mm 0.00 in0.0 mm
05:45 AM 51.3°F10.7°C 48.5°F9.2°C 90% 1.2 mph NE1.9 kmh NE 3.5 mph5.6 kmh 29.89 in1012.2 mb - 0.00 in0.0 mm 0.00 in0.0 mm
05:40 AM 51.3°F10.7°C 48.4°F9.1°C 90% 2.3 mph NE3.7 kmh NE 2.3 mph3.7 kmh 29.89 in1012.2 mb - 0.00 in0.0 mm 0.00 in0.0 mm
05:35 AM 51.2°F10.7°C 48.4°F9.1°C 90% Calm Calm -- 29.89 in1012.2 mb - 0.00 in0.0 mm 0.00 in0.0 mm
05:30 AM 51.2°F10.7°C 48.4°F9.1°C 90% 3.5 mph NE5.6 kmh NE 3.5 mph5.6 kmh 29.89 in1012.2 mb - 0.00 in0.0 mm 0.00 in0.0 mm
05:25 AM 51.2°F10.7°C 48.4°F9.1°C 90% 1.2 mph NNE1.9 kmh NNE 1.2 mph1.9 kmh 29.89 in1012.2 mb - 0.00 in0.0 mm 0.00 in0.0 mm
05:20 AM 51.2°F10.7°C 48.3°F9.1°C 90% 1.2 mph N1.9 kmh N 2.3 mph3.7 kmh 29.89 in1012.2 mb - 0.00 in0.0 mm 0.00 in0.0 mm
05:15 AM 51.1°F10.6°C 48.3°F9.1°C 90% 1.2 mph N1.9 kmh N 1.2 mph1.9 kmh 29.89 in1012.2 mb - 0.00 in0.0 mm 0.00 in0.0 mm
05:10 AM 51.0°F10.6°C 48.2°F9.0°C 90% 2.3 mph NE3.7 kmh NE 2.3 mph3.7 kmh 29.89 in1012.2 mb - 0.00 in0.0 mm 0.00 in0.0 mm
05:00 AM 50.9°F10.5°C 48.1°F8.9°C 90% 2.3 mph NE3.7 kmh NE 3.5 mph5.6 kmh 29.89 in1012.2 mb - 0.00 in0.0 mm 0.00 in0.0 mm
04:55 AM 50.8°F10.4°C 48.0°F8.9°C 90% 2.3 mph NE3.7 kmh NE 3.5 mph5.6 kmh 29.89 in1012.2 mb - 0.00 in0.0 mm 0.00 in0.0 mm
04:50 AM 50.8°F10.4°C 48.0°F8.9°C 90% 2.3 mph ENE3.7 kmh ENE 3.5 mph5.6 kmh 29.89 in1012.2 mb - 0.00 in0.0 mm 0.00 in0.0 mm
04:45 AM 50.7°F10.4°C 47.9°F8.8°C 90% 2.3 mph ENE3.7 kmh ENE 3.5 mph5.6 kmh 29.89 in1012.2 mb - 0.00 in0.0 mm 0.00 in0.0 mm
04:40 AM 50.7°F10.4°C 47.9°F8.8°C 90% 1.2 mph NE1.9 kmh NE 2.3 mph3.7 kmh 29.89 in1012.2 mb - 0.00 in0.0 mm 0.00 in0.0 mm
04:35 AM 50.6°F10.3°C 47.8°F8.8°C 90% Calm Calm 3.5 mph5.6 kmh 29.89 in1012.2 mb - 0.00 in0.0 mm 0.00 in0.0 mm
04:30 AM 50.6°F10.3°C 47.7°F8.7°C 90% 3.5 mph NE5.6 kmh NE 3.5 mph5.6 kmh 29.89 in1012.2 mb - 0.00 in0.0 mm 0.00 in0.0 mm
04:25 AM 50.5°F10.3°C 47.7°F8.7°C 90% 2.3 mph NE3.7 kmh NE 3.5 mph5.6 kmh 29.89 in1012.2 mb - 0.00 in0.0 mm 0.00 in0.0 mm
04:20 AM 50.4°F10.2°C 47.6°F8.7°C 90% 2.3 mph NNE3.7 kmh NNE 4.6 mph7.4 kmh 29.89 in1012.2 mb - 0.00 in0.0 mm 0.00 in0.0 mm
04:15 AM 50.4°F10.2°C 47.6°F8.7°C 90% 3.5 mph NE5.6 kmh NE 3.5 mph5.6 kmh 29.89 in1012.2 mb - 0.00 in0.0 mm 0.00 in0.0 mm
04:10 AM 50.3°F10.2°C 47.5°F8.6°C 90% 2.3 mph NNE3.7 kmh NNE 5.8 mph9.3 kmh 29.89 in1012.2 mb - 0.00 in0.0 mm 0.00 in0.0 mm
04:00 AM 50.2°F10.1°C 47.4°F8.6°C 90% 3.5 mph N5.6 kmh N 6.9 mph11.1 kmh 29.88 in1011.9 mb - 0.00 in0.0 mm 0.00 in0.0 mm
03:55 AM 50.2°F10.1°C 47.4°F8.6°C 90% 3.5 mph N5.6 kmh N 4.6 mph7.4 kmh 29.88 in1011.9 mb - 0.00 in0.0 mm 0.00 in0.0 mm
03:50 AM 50.2°F10.1°C 47.4°F8.6°C 90% 4.6 mph NNE7.4 kmh NNE 4.6 mph7.4 kmh 29.88 in1011.9 mb - 0.00 in0.0 mm 0.00 in0.0 mm
03:45 AM 50.3°F10.2°C 47.5°F8.6°C 90% 3.5 mph N5.6 kmh N 3.5 mph5.6 kmh 29.89 in1012.2 mb - 0.00 in0.0 mm 0.00 in0.0 mm
03:40 AM 50.3°F10.2°C 47.5°F8.6°C 90% 4.6 mph NNE7.4 kmh NNE 5.8 mph9.3 kmh 29.89 in1012.2 mb - 0.00 in0.0 mm 0.00 in0.0 mm
03:35 AM 50.3°F10.2°C 47.5°F8.6°C 90% 2.3 mph NE3.7 kmh NE 3.5 mph5.6 kmh 29.89 in1012.2 mb - 0.00 in0.0 mm 0.00 in0.0 mm
03:30 AM 50.4°F10.2°C 47.6°F8.7°C 90% 4.6 mph NE7.4 kmh NE 9.2 mph14.8 kmh 29.89 in1012.2 mb - 0.00 in0.0 mm 0.00 in0.0 mm
03:25 AM 50.4°F10.2°C 47.6°F8.7°C 90% 4.6 mph NNE7.4 kmh NNE 4.6 mph7.4 kmh 29.89 in1012.2 mb - 0.00 in0.0 mm 0.00 in0.0 mm
03:20 AM 50.4°F10.2°C 47.6°F8.7°C 90% 5.8 mph NE9.3 kmh NE 9.2 mph14.8 kmh 29.89 in1012.2 mb - 0.00 in0.0 mm 0.00 in0.0 mm
03:15 AM 50.5°F10.3°C 47.7°F8.7°C 90% 3.5 mph NE5.6 kmh NE 4.6 mph7.4 kmh 29.89 in1012.2 mb - 0.00 in0.0 mm 0.00 in0.0 mm
03:10 AM 50.5°F10.3°C 47.7°F8.7°C 90% 3.5 mph N5.6 kmh N 4.6 mph7.4 kmh 29.89 in1012.2 mb - 0.00 in0.0 mm 0.00 in0.0 mm
03:00 AM 50.5°F10.3°C 48.0°F8.9°C 91% 4.6 mph NE7.4 kmh NE 5.8 mph9.3 kmh 29.89 in1012.2 mb - 0.00 in0.0 mm 0.00 in0.0 mm
02:55 AM 50.5°F10.3°C 48.0°F8.9°C 91% 4.6 mph NE7.4 kmh NE 4.6 mph7.4 kmh 29.90 in1012.5 mb - 0.00 in0.0 mm 0.00 in0.0 mm
02:50 AM 50.5°F10.3°C 48.0°F8.9°C 91% 5.8 mph NE9.3 kmh NE 8.1 mph13.0 kmh 29.90 in1012.5 mb - 0.00 in0.0 mm 0.00 in0.0 mm
02:45 AM 50.5°F10.3°C 48.0°F8.9°C 91% 3.5 mph N5.6 kmh N 4.6 mph7.4 kmh 29.90 in1012.5 mb - 0.00 in0.0 mm 0.00 in0.0 mm
02:40 AM 50.5°F10.3°C 48.0°F8.9°C 91% 4.6 mph NE7.4 kmh NE 4.6 mph7.4 kmh 29.90 in1012.5 mb - 0.00 in0.0 mm 0.00 in0.0 mm
02:35 AM 50.6°F10.3°C 48.1°F8.9°C 91% 2.3 mph NNE3.7 kmh NNE 3.5 mph5.6 kmh 29.90 in1012.5 mb - 0.00 in0.0 mm 0.00 in0.0 mm
02:30 AM 50.6°F10.3°C 48.1°F8.9°C 91% 2.3 mph E3.7 kmh E 2.3 mph3.7 kmh 29.90 in1012.5 mb - 0.00 in0.0 mm 0.00 in0.0 mm
02:25 AM 50.6°F10.3°C 48.1°F8.9°C 91% 2.3 mph NE3.7 kmh NE 4.6 mph7.4 kmh 29.90 in1012.5 mb - 0.00 in0.0 mm 0.00 in0.0 mm
02:20 AM 50.5°F10.3°C 48.0°F8.9°C 91% 3.5 mph NE5.6 kmh NE 5.8 mph9.3 kmh 29.90 in1012.5 mb - 0.00 in0.0 mm 0.00 in0.0 mm
02:15 AM 50.5°F10.3°C 48.0°F8.9°C 91% 2.3 mph NNE3.7 kmh NNE 3.5 mph5.6 kmh 29.90 in1012.5 mb - 0.00 in0.0 mm 0.00 in0.0 mm
02:10 AM 50.5°F10.3°C 47.7°F8.7°C 90% 3.5 mph NNW5.6 kmh NNW 5.8 mph9.3 kmh 29.90 in1012.5 mb - 0.00 in0.0 mm 0.00 in0.0 mm
02:00 AM 50.6°F10.3°C 47.8°F8.8°C 90% 2.3 mph NE3.7 kmh NE 3.5 mph5.6 kmh 29.90 in1012.5 mb - 0.00 in0.0 mm 0.00 in0.0 mm
01:55 AM 50.6°F10.3°C 48.1°F8.9°C 91% 2.3 mph NE3.7 kmh NE 5.8 mph9.3 kmh 29.90 in1012.5 mb - 0.00 in0.0 mm 0.00 in0.0 mm
01:50 AM 50.6°F10.3°C 48.1°F8.9°C 91% 4.6 mph N7.4 kmh N 8.1 mph13.0 kmh 29.90 in1012.5 mb - 0.00 in0.0 mm 0.00 in0.0 mm
01:45 AM 50.6°F10.3°C 48.1°F8.9°C 91% 3.5 mph NE5.6 kmh NE 3.5 mph5.6 kmh 29.90 in1012.5 mb - 0.00 in0.0 mm 0.00 in0.0 mm
01:40 AM 50.6°F10.3°C 48.1°F8.9°C 91% 3.5 mph NNW5.6 kmh NNW 3.5 mph5.6 kmh 29.90 in1012.5 mb - 0.00 in0.0 mm 0.00 in0.0 mm
01:35 AM 50.6°F10.3°C 48.1°F8.9°C 91% 4.6 mph NNE7.4 kmh NNE 9.2 mph14.8 kmh 29.90 in1012.5 mb - 0.00 in0.0 mm 0.00 in0.0 mm
01:30 AM 50.6°F10.3°C 48.1°F8.9°C 91% 4.6 mph N7.4 kmh N 8.1 mph13.0 kmh 29.90 in1012.5 mb - 0.00 in0.0 mm 0.00 in0.0 mm
01:25 AM 50.6°F10.3°C 48.1°F8.9°C 91% 5.8 mph N9.3 kmh N 8.1 mph13.0 kmh 29.91 in1012.9 mb - 0.00 in0.0 mm 0.00 in0.0 mm
01:20 AM 50.6°F10.3°C 48.1°F8.9°C 91% 8.1 mph N13.0 kmh N 10.4 mph16.7 kmh 29.91 in1012.9 mb - 0.00 in0.0 mm 0.00 in0.0 mm
01:15 AM 50.7°F10.4°C 48.2°F9.0°C 91% 8.1 mph NNE13.0 kmh NNE 9.2 mph14.8 kmh 29.91 in1012.9 mb - 0.00 in0.0 mm 0.00 in0.0 mm
01:10 AM 50.7°F10.4°C 48.2°F9.0°C 91% 5.8 mph N9.3 kmh N 6.9 mph11.1 kmh 29.91 in1012.9 mb - 0.00 in0.0 mm 0.00 in0.0 mm
01:00 AM 50.9°F10.5°C 48.3°F9.1°C 91% 3.5 mph N5.6 kmh N 5.8 mph9.3 kmh 29.91 in1012.9 mb - 0.00 in0.0 mm 0.00 in0.0 mm
12:55 AM 50.8°F10.4°C 48.6°F9.2°C 92% 2.3 mph NNW3.7 kmh NNW 8.1 mph13.0 kmh 29.91 in1012.9 mb - 0.00 in0.0 mm 0.00 in0.0 mm
12:50 AM 50.9°F10.5°C 48.3°F9.1°C 91% 3.5 mph N5.6 kmh N 3.5 mph5.6 kmh 29.91 in1012.9 mb - 0.00 in0.0 mm 0.00 in0.0 mm
12:45 AM 50.8°F10.4°C 48.3°F9.1°C 91% 2.3 mph NNE3.7 kmh NNE 4.6 mph7.4 kmh 29.91 in1012.9 mb - 0.00 in0.0 mm 0.00 in0.0 mm
12:40 AM 50.8°F10.4°C 48.6°F9.2°C 92% 2.3 mph N3.7 kmh N 4.6 mph7.4 kmh 29.91 in1012.9 mb - 0.00 in0.0 mm 0.00 in0.0 mm
12:35 AM 50.8°F10.4°C 48.3°F9.1°C 91% 3.5 mph N5.6 kmh N 8.1 mph13.0 kmh 29.91 in1012.9 mb - 0.00 in0.0 mm 0.00 in0.0 mm
12:30 AM 50.8°F10.4°C 48.3°F9.1°C 91% 5.8 mph N9.3 kmh N 8.1 mph13.0 kmh 29.91 in1012.9 mb - 0.00 in0.0 mm 0.00 in0.0 mm
12:25 AM 50.9°F10.5°C 48.4°F9.1°C 91% 5.8 mph N9.3 kmh N 10.4 mph16.7 kmh 29.91 in1012.9 mb - 0.00 in0.0 mm 0.00 in0.0 mm
12:20 AM 50.9°F10.5°C 48.4°F9.1°C 91% 3.5 mph N5.6 kmh N 3.5 mph5.6 kmh 29.92 in1013.2 mb - 0.00 in0.0 mm 0.00 in0.0 mm
12:15 AM 50.9°F10.5°C 48.7°F9.3°C 92% 8.1 mph NNW13.0 kmh NNW 10.4 mph16.7 kmh 29.92 in1013.2 mb - 0.00 in0.0 mm 0.00 in0.0 mm
12:10 AM 51.0°F10.6°C 48.8°F9.3°C 92% 6.9 mph N11.1 kmh N 9.2 mph14.8 kmh 29.92 in1013.2 mb - 0.00 in0.0 mm 0.00 in0.0 mm
12:00 AM 51.0°F10.6°C 48.8°F9.3°C 92% 4.6 mph NNW7.4 kmh NNW 8.1 mph13.0 kmh 29.91 in1012.9 mb - 0.00 in0.0 mm 0.00 in0.0 mm